Time;durP1;ratioP1;P1;durP2;ratioP2;P2;SDS_P1;SDS_P2;PMS_P1;PMS_P2;Temp;Humidity;BMP_temperature;BMP_pressure;BME280_temperature;BME280_humidity;BME280_pressure;Samples;Min_cycle;Max_cycle;Signal;HPM_P1;HPM_P2
2022/04/20 00:02:00;;;;;;;;;31.50;24.75;;;;;11.88;66.32;100894.41;5103665;27;45812;-70
2022/04/20 00:04:25;;;;;;;;;31.25;26.75;;;;;11.84;67.31;100898.88;5102252;27;45489;-71
2022/04/20 00:06:50;;;;;;;;;34.00;25.50;;;;;11.79;67.98;100898.13;5103287;27;45587;-72
2022/04/20 00:09:15;;;;;;;;;36.75;28.75;;;;;11.75;67.93;100896.47;5102906;27;45360;-72
2022/04/20 00:11:41;;;;;;;;;33.25;29.00;;;;;11.73;66.78;100892.22;5114426;27;45353;-71
2022/04/20 00:14:06;;;;;;;;;32.25;29.75;;;;;11.74;67.74;100888.72;5104466;27;45332;-70
2022/04/20 00:16:31;;;;;;;;;32.25;26.75;;;;;11.72;68.20;100893.13;5098490;27;45341;-70
2022/04/20 00:18:57;;;;;;;;;31.00;28.50;;;;;11.69;67.40;100893.22;5100500;27;46264;-70
2022/04/20 00:21:22;;;;;;;;;31.75;25.25;;;;;11.70;66.92;100887.97;5103121;27;45279;-69
2022/04/20 00:23:48;;;;;;;;;35.75;29.50;;;;;11.71;67.50;100892.28;5103276;27;45317;-68
2022/04/20 00:26:14;;;;;;;;;33.00;27.00;;;;;11.70;67.24;100890.56;5103301;27;45410;-69
2022/04/20 00:28:39;;;;;;;;;25.75;20.75;;;;;11.70;67.29;100887.97;5091331;27;45641;-69
2022/04/20 00:31:04;;;;;;;;;42.50;26.50;;;;;11.70;67.86;100890.56;5103245;27;45318;-70
2022/04/20 00:33:29;;;;;;;;;40.50;30.75;;;;;11.68;68.54;100896.72;5103133;27;45255;-67
2022/04/20 00:35:55;;;;;;;;;42.25;33.50;;;;;11.61;68.12;100880.41;5102085;27;45475;-67
2022/04/20 00:38:20;;;;;;;;;31.75;29.50;;;;;11.60;68.59;100886.50;5090094;27;46279;-68
2022/04/20 00:40:47;;;;;;;;;33.25;28.25;;;;;11.60;68.82;100886.50;5111819;27;45301;-68
2022/04/20 00:43:13;;;;;;;;;18.00;13.25;;;;;11.54;68.15;100887.56;5105933;27;45413;-66
2022/04/20 00:45:40;;;;;;;;;37.75;31.75;;;;;11.52;69.35;100888.50;5100118;27;45481;-72
2022/04/20 00:48:09;;;;;;;;;36.75;30.00;;;;;11.49;68.54;100886.00;5101511;27;45409;-72
2022/04/20 00:50:34;;;;;;;;;41.25;32.50;;;;;11.45;68.86;100876.56;5101464;27;45997;-71
2022/04/20 00:53:00;;;;;;;;;35.50;29.75;;;;;11.45;68.25;100871.38;5101635;27;45496;-71
2022/04/20 00:55:25;;;;;;;;;42.75;31.75;;;;;11.46;68.94;100873.06;5101743;27;45349;-71
2022/04/20 00:57:50;;;;;;;;;47.00;35.25;;;;;11.46;70.65;100878.28;5100571;27;47445;-67
2022/04/20 01:00:16;;;;;;;;;41.00;32.50;;;;;11.39;70.03;100874.13;5102790;27;45227;-66
2022/04/20 01:02:41;;;;;;;;;43.50;32.25;;;;;11.39;68.63;100868.91;5102402;27;45272;-68
2022/04/20 01:05:07;;;;;;;;;44.00;35.75;;;;;11.39;68.88;100866.31;5102561;27;45443;-68
2022/04/20 01:07:40;;;;;;;;;43.75;32.00;;;;;11.42;68.59;100874.06;5102130;27;45231;-70
2022/04/20 01:10:06;;;;;;;;;27.75;23.25;;;;;11.45;68.46;100876.56;5097304;27;45279;-70
2022/04/20 01:12:32;;;;;;;;;41.50;35.00;;;;;11.45;69.18;100866.16;5096639;27;45298;-69
2022/04/20 01:14:57;;;;;;;;;31.50;27.75;;;;;11.41;69.88;100864.53;5094631;27;45477;-70
2022/04/20 01:17:23;;;;;;;;;32.50;29.50;;;;;11.34;69.82;100865.59;5099840;27;47205;-70
2022/04/20 01:19:48;;;;;;;;;39.50;31.75;;;;;11.31;70.58;100866.56;5102191;27;45153;-70
2022/04/20 01:22:13;;;;;;;;;42.25;32.00;;;;;11.25;70.57;100864.97;5100581;27;45360;-70
2022/04/20 01:24:39;;;;;;;;;41.00;32.50;;;;;11.20;70.02;100852.97;5102369;27;45515;-70
2022/04/20 01:27:06;;;;;;;;;45.25;30.25;;;;;11.28;69.62;100870.09;5098257;27;47942;-69
2022/04/20 01:29:32;;;;;;;;;42.00;36.50;;;;;11.28;69.78;100851.88;5092808;27;45827;-69
2022/04/20 01:31:57;;;;;;;;;33.25;29.50;;;;;11.25;69.92;100861.53;5102299;27;45274;-70
2022/04/20 01:34:23;;;;;;;;;35.00;29.00;;;;;11.22;69.77;100856.41;5100704;27;45298;-69
2022/04/20 01:36:49;;;;;;;;;36.75;32.25;;;;;11.18;71.39;100862.56;5101450;27;45333;-69
2022/04/20 01:39:15;;;;;;;;;45.75;30.25;;;;;11.09;72.46;100849.84;5100944;27;45415;-69
2022/04/20 01:41:41;;;;;;;;;51.25;34.25;;;;;11.06;70.55;100858.59;5100154;27;45439;-69
2022/04/20 01:44:06;;;;;;;;;40.00;32.50;;;;;11.06;70.55;100856.00;5100334;27;45590;-71
2022/04/20 01:46:32;;;;;;;;;38.00;31.25;;;;;11.05;71.64;100864.69;5098629;27;47166;-71
2022/04/20 01:48:57;;;;;;;;;42.25;33.75;;;;;11.00;71.46;100861.34;5110451;27;45328;-69
2022/04/20 01:54:07;;;;;;;;;44.00;33.50;;;;;11.00;71.41;100856.13;5100677;27;45525;-70
2022/04/20 01:56:33;;;;;;;;;43.25;37.00;;;;;11.00;72.62;100871.72;5100609;27;45481;-71
2022/04/20 01:58:58;;;;;;;;;51.75;39.50;;;;;10.97;72.25;100864.03;5101570;27;45357;-71
2022/04/20 02:04:07;;;;;;;;;40.50;32.50;;;;;10.88;73.50;100861.69;5088118;27;45172;-72
2022/04/20 02:06:33;;;;;;;;;42.50;35.00;;;;;10.84;71.72;100865.25;5101495;27;45330;-71
2022/04/20 02:08:59;;;;;;;;;46.75;36.00;;;;;10.85;72.76;100852.22;5101343;27;45198;-69
2022/04/20 02:11:24;;;;;;;;;48.25;35.00;;;;;10.86;72.31;100853.94;5101783;27;45245;-69
2022/04/20 02:13:49;;;;;;;;;42.50;37.00;;;;;10.87;72.45;100858.22;5101443;27;45210;-68
2022/04/20 02:16:15;;;;;;;;;52.50;38.50;;;;;10.88;71.91;100859.94;5101429;27;45403;-69
2022/04/20 02:18:40;;;;;;;;;53.50;34.75;;;;;10.87;71.97;100855.63;5101220;27;45452;-67
2022/04/20 02:21:05;;;;;;;;;43.50;35.50;;;;;10.84;73.09;100844.47;5101488;27;45441;-67
2022/04/20 02:23:31;;;;;;;;;45.75;36.25;;;;;10.84;71.99;100844.47;5101011;27;45518;-67
2022/04/20 02:25:56;;;;;;;;;56.75;38.50;;;;;10.83;72.53;100840.16;5101407;27;45300;-68
2022/04/20 02:28:22;;;;;;;;;53.00;39.75;;;;;10.80;73.17;100840.22;5088555;27;46079;-67
2022/04/20 02:30:47;;;;;;;;;51.75;38.50;;;;;10.74;73.62;100837.78;5101365;27;45380;-67
2022/04/20 02:33:13;;;;;;;;;51.50;37.50;;;;;10.65;74.21;100828.50;5101404;27;45451;-67
2022/04/20 02:35:39;;;;;;;;;54.75;42.00;;;;;10.63;72.76;100831.16;5100623;27;46274;-73
2022/04/20 02:38:07;;;;;;;;;52.50;39.50;;;;;10.65;73.53;100825.91;5101114;27;45837;-70
2022/04/20 02:40:32;;;;;;;;;37.00;33.25;;;;;10.63;73.46;100820.75;5101500;27;45247;-70
2022/04/20 02:42:58;;;;;;;;;56.50;43.50;;;;;10.62;74.04;100821.66;5099753;27;45441;-69
2022/04/20 02:45:23;;;;;;;;;55.00;42.00;;;;;10.58;74.85;100819.13;5101091;27;46516;-69
2022/04/20 02:47:49;;;;;;;;;52.00;39.50;;;;;10.51;74.29;100817.59;5101053;27;45471;-69
2022/04/20 02:50:14;;;;;;;;;54.25;39.75;;;;;10.55;73.52;100824.41;5101286;27;45331;-70
2022/04/20 02:52:40;;;;;;;;;50.25;40.75;;;;;10.56;73.57;100811.38;5100773;27;45443;-68
2022/04/20 02:55:05;;;;;;;;;58.00;41.25;;;;;10.53;74.19;100806.28;5100736;27;45663;-68
2022/04/20 02:57:31;;;;;;;;;53.75;40.00;;;;;10.56;73.39;100808.78;5100542;27;45357;-70
2022/04/20 02:59:56;;;;;;;;;58.50;45.00;;;;;10.51;75.26;100812.41;5099624;27;45347;-69
2022/04/20 03:02:21;;;;;;;;;58.00;42.50;;;;;10.49;73.80;100807.25;5100674;27;45481;-68
2022/04/20 03:04:47;;;;;;;;;60.75;46.00;;;;;10.48;75.09;100802.09;5100968;27;46722;-68
2022/04/20 03:07:12;;;;;;;;;55.00;42.00;;;;;10.46;74.09;100816.88;5099658;27;45294;-68
2022/04/20 03:09:37;;;;;;;;;56.00;41.50;;;;;10.47;73.48;100808.19;5099336;27;45407;-66
2022/04/20 03:12:03;;;;;;;;;59.00;44.00;;;;;10.49;74.04;100806.41;5100423;27;45291;-67
2022/04/20 03:14:28;;;;;;;;;60.50;45.25;;;;;10.51;74.47;100802.88;5100744;27;45349;-67
2022/04/20 03:16:54;;;;;;;;;64.50;44.00;;;;;10.49;73.75;100799.47;5092566;27;45394;-67
2022/04/20 03:19:19;;;;;;;;;59.75;47.00;;;;;10.47;73.72;100798.66;5087787;27;45515;-66
2022/04/20 03:21:44;;;;;;;;;64.50;46.50;;;;;10.50;73.13;100795.97;5099622;27;45512;-67
2022/04/20 03:24:10;;;;;;;;;59.00;46.00;;;;;10.50;73.98;100798.56;5099545;27;45381;-67
2022/04/20 03:26:35;;;;;;;;;60.25;45.75;;;;;10.49;74.83;100798.59;5098709;27;45626;-67
2022/04/20 03:29:00;;;;;;;;;61.25;47.00;;;;;10.45;75.42;100799.59;5088583;27;45278;-66
2022/04/20 03:31:26;;;;;;;;;60.50;46.50;;;;;10.43;75.58;100802.22;5099410;27;45360;-66
2022/04/20 03:33:51;;;;;;;;;61.00;42.25;;;;;10.39;74.86;100808.38;5099005;27;46636;-71
2022/04/20 03:36:17;;;;;;;;;62.25;48.25;;;;;10.38;74.69;100808.41;5098716;27;45279;-67
2022/04/20 03:38:42;;;;;;;;;58.50;45.25;;;;;10.38;74.39;100813.59;5100418;27;45357;-67
2022/04/20 03:41:09;;;;;;;;;57.75;45.00;;;;;10.36;74.33;100806.72;5098985;27;45601;-66
2022/04/20 03:43:34;;;;;;;;;63.50;46.75;;;;;10.40;74.56;100825.66;5099729;27;46103;-67
2022/04/20 03:45:59;;;;;;;;;60.67;46.67;;;;;10.42;73.87;100815.25;5098850;27;45307;-66
2022/04/20 03:48:26;;;;;;;;;59.50;47.75;;;;;10.45;73.84;100817.78;5100296;27;45220;-65
2022/04/20 03:50:51;;;;;;;;;65.00;47.00;;;;;10.48;74.23;100826.34;5099850;27;45486;-65
2022/04/20 03:53:18;;;;;;;;;57.25;47.00;;;;;10.47;73.66;100827.22;5099875;27;45525;-64
2022/04/20 03:55:44;;;;;;;;;57.25;42.00;;;;;10.45;74.20;100826.41;5099967;27;45795;-65
2022/04/20 03:58:09;;;;;;;;;64.50;47.25;;;;;10.42;74.90;100826.50;5099845;27;45382;-66
2022/04/20 04:00:34;;;;;;;;;58.33;46.00;;;;;10.41;74.42;100830.00;5100085;27;45683;-66
2022/04/20 04:03:00;;;;;;;;;62.50;46.50;;;;;10.42;74.10;100839.50;5098296;27;46958;-66
2022/04/20 04:05:25;;;;;;;;;61.25;47.00;;;;;10.44;74.65;100845.50;5099482;27;45242;-67
2022/04/20 04:07:51;;;;;;;;;65.50;48.00;;;;;10.43;74.61;100843.78;5099506;27;45285;-66
2022/04/20 04:10:16;;;;;;;;;62.75;46.50;;;;;10.42;74.43;100834.28;5099847;27;45284;-67
2022/04/20 04:12:42;;;;;;;;;60.00;46.75;;;;;10.44;74.04;100837.72;5098096;27;45398;-66
2022/04/20 04:15:07;;;;;;;;;60.00;45.00;;;;;10.46;73.99;100827.28;5099978;27;45254;-66
2022/04/20 04:17:33;;;;;;;;;62.75;47.50;;;;;10.44;73.08;100818.66;5099583;27;45523;-67
2022/04/20 04:19:59;;;;;;;;;61.75;44.50;;;;;10.46;73.57;100819.47;5102087;27;45217;-66
2022/04/20 04:22:24;;;;;;;;;63.00;50.00;;;;;10.47;73.68;100816.84;5102887;27;46062;-67
2022/04/20 04:24:49;;;;;;;;;59.50;46.25;;;;;10.51;73.48;100815.84;5102989;27;45278;-66
2022/04/20 04:27:16;;;;;;;;;64.50;48.75;;;;;10.50;73.48;100823.69;5099265;27;45218;-66
2022/04/20 04:29:41;;;;;;;;;67.00;49.00;;;;;10.48;73.35;100818.53;5094906;27;45420;-63
2022/04/20 04:32:07;;;;;;;;;61.75;46.75;;;;;10.48;73.87;100825.47;5102821;27;46359;-66
2022/04/20 04:34:33;;;;;;;;;64.25;47.75;;;;;10.48;73.55;100831.53;5113846;27;45294;-66
2022/04/20 04:36:59;;;;;;;;;61.25;48.25;;;;;10.49;73.40;100827.19;5105322;27;45321;-67
2022/04/20 04:39:28;;;;;;;;;57.75;46.50;;;;;10.51;73.01;100826.25;5103115;27;45349;-67
2022/04/20 04:41:56;;;;;;;;;62.25;47.25;;;;;10.54;73.26;100830.50;5101207;27;47340;-67
2022/04/20 04:44:22;;;;;;;;;58.50;45.50;;;;;10.54;74.05;100826.16;5102891;27;45413;-67
2022/04/20 04:49:32;;;;;;;;;66.00;46.75;;;;;10.48;73.78;100830.69;5102579;27;45412;-66
2022/04/20 04:51:59;;;;;;;;;63.75;47.25;;;;;10.47;73.70;100842.81;5102397;27;46098;-67
2022/04/20 04:54:25;;;;;;;;;62.25;49.00;;;;;10.48;74.27;100849.72;5102345;27;45297;-66
2022/04/20 04:56:51;;;;;;;;;66.75;50.50;;;;;10.46;73.51;100843.72;5102616;27;45281;-65
2022/04/20 04:59:18;;;;;;;;;62.50;47.75;;;;;10.47;73.43;100855.81;5102263;27;45221;-66
2022/04/20 05:01:43;;;;;;;;;67.00;49.00;;;;;10.47;73.79;100850.63;5102529;27;45217;-66
2022/04/20 05:04:09;;;;;;;;;72.25;47.50;;;;;10.51;73.51;100847.03;5102447;27;45377;-66
2022/04/20 05:06:35;;;;;;;;;65.00;49.00;;;;;10.54;73.63;100841.75;5101025;27;45649;-66
2022/04/20 05:09:00;;;;;;;;;66.75;50.50;;;;;10.52;73.99;100835.75;5101614;27;45366;-67
2022/04/20 05:11:26;;;;;;;;;66.50;47.25;;;;;10.56;73.16;100839.13;5102467;27;46351;-67
2022/04/20 05:13:51;;;;;;;;;60.75;48.25;;;;;10.63;73.32;100841.53;5102238;27;45348;-67
2022/04/20 05:16:17;;;;;;;;;71.00;52.25;;;;;10.68;73.04;100840.56;5102000;27;45236;-67
2022/04/20 05:18:42;;;;;;;;;66.50;51.50;;;;;10.72;73.10;100842.19;5101773;27;45282;-66
2022/04/20 05:21:07;;;;;;;;;67.25;52.00;;;;;10.75;73.56;100844.69;5101735;27;45400;-67
2022/04/20 05:23:33;;;;;;;;;70.75;49.75;;;;;10.75;73.12;100834.28;5100327;27;45233;-67
2022/04/20 05:25:58;;;;;;;;;61.25;50.25;;;;;10.80;72.70;100832.41;5102359;27;45288;-67
2022/04/20 05:28:23;;;;;;;;;68.00;52.00;;;;;10.81;73.00;100840.19;5088678;27;45437;-67
2022/04/20 05:30:49;;;;;;;;;68.75;52.00;;;;;10.77;72.70;100845.50;5101394;27;45301;-67
2022/04/20 05:33:14;;;;;;;;;65.25;49.50;;;;;10.75;72.78;100837.75;5100206;27;45252;-67
2022/04/20 05:35:40;;;;;;;;;68.75;50.50;;;;;10.78;72.86;100848.06;5099900;27;45282;-67
2022/04/20 05:43:33;;;;;;;;;71.25;51.50;;;;;10.91;72.21;100851.19;5101141;27;45326;-66
2022/04/20 05:45:59;;;;;;;;;71.25;53.50;;;;;10.93;72.81;100862.41;5100019;27;45362;-67
2022/04/20 05:48:25;;;;;;;;;66.50;50.75;;;;;10.97;71.99;100864.88;5101832;27;45385;-66
2022/04/20 05:50:50;;;;;;;;;72.75;51.25;;;;;11.01;71.78;100864.78;5100054;27;48036;-67
2022/04/20 05:53:16;;;;;;;;;74.75;54.25;;;;;11.04;71.81;100864.72;5101412;27;45438;-67
2022/04/20 05:55:41;;;;;;;;;67.50;53.00;;;;;11.03;71.36;100858.69;5101463;27;45523;-67
2022/04/20 05:58:07;;;;;;;;;72.75;51.50;;;;;11.11;71.50;100872.31;5101186;27;45303;-65
2022/04/20 06:00:32;;;;;;;;;72.25;53.25;;;;;11.17;70.87;100858.28;5100926;27;45396;-65
2022/04/20 06:02:58;;;;;;;;;74.75;51.75;;;;;11.18;70.85;100854.78;5101137;27;45288;-65
2022/04/20 06:05:23;;;;;;;;;72.75;51.00;;;;;11.22;70.68;100862.47;5101227;27;45175;-65
2022/04/20 06:08:29;;;;;;;;;65.25;51.00;;;;;11.27;70.45;100851.94;5099360;27;45812;-65
2022/04/20 06:10:57;;;;;;;;;68.50;52.75;;;;;11.33;70.54;100837.88;5100814;27;46376;-68
2022/04/20 06:13:22;;;;;;;;;68.00;49.00;;;;;11.38;70.63;100838.59;5101129;27;45322;-68
2022/04/20 06:15:48;;;;;;;;;52.67;43.33;;;;;11.43;69.97;100842.78;5097675;27;45441;-69
2022/04/20 06:18:13;;;;;;;;;72.75;52.00;;;;;11.53;69.77;100845.97;5094486;27;45293;-70
2022/04/20 06:20:40;;;;;;;;;60.25;45.00;;;;;11.57;69.40;100844.97;5100838;27;46060;-70
2022/04/20 06:23:05;;;;;;;;;67.00;52.00;;;;;11.53;69.12;100830.34;5099277;27;45300;-70
2022/04/20 06:25:31;;;;;;;;;71.75;52.00;;;;;11.59;68.73;100845.78;5113211;27;45835;-70
2022/04/20 06:27:56;;;;;;;;;64.50;51.75;;;;;11.58;68.47;100859.69;5099385;27;45229;-70
2022/04/20 06:30:21;;;;;;;;;62.75;47.00;;;;;11.56;68.33;100857.13;5100511;27;46325;-70
2022/04/20 06:32:47;;;;;;;;;66.75;48.75;;;;;11.56;68.33;100857.13;5100853;27;45213;-70
2022/04/20 06:35:13;;;;;;;;;66.75;48.25;;;;;11.55;68.27;100857.16;5100539;27;45314;-69
2022/04/20 06:37:38;;;;;;;;;68.75;50.00;;;;;11.57;68.28;100848.41;5100800;27;45537;-69
2022/04/20 06:40:04;;;;;;;;;67.00;54.00;;;;;11.62;68.04;100850.91;5100693;27;46507;-69
2022/04/20 06:42:30;;;;;;;;;58.00;47.00;;;;;11.72;68.07;100846.25;5098049;27;46855;-70
2022/04/20 06:44:56;;;;;;;;;62.25;46.75;;;;;11.82;67.98;100843.38;5100385;27;45365;-70
2022/04/20 06:47:21;;;;;;;;;68.25;49.25;;;;;11.93;67.90;100852.59;5100642;27;45337;-68
2022/04/20 06:49:47;;;;;;;;;62.50;46.75;;;;;12.00;67.11;100843.69;5100266;27;46175;-67
2022/04/20 07:00:25;;;;;;;;;64.75;51.00;;;;;12.52;66.51;100850.66;5100210;27;45752;-67
2022/04/20 07:03:01;;;;;;;;;64.25;48.75;;;;;12.68;65.91;100851.00;5100061;27;45337;-69
2022/04/20 07:05:27;;;;;;;;;61.75;45.00;;;;;12.81;64.82;100852.25;5099880;27;45436;-67
2022/04/20 07:07:52;;;;;;;;;62.00;46.00;;;;;12.99;65.22;100854.22;5100109;27;45380;-68
2022/04/20 07:10:17;;;;;;;;;59.00;44.00;;;;;13.14;64.38;100857.19;5100281;27;45267;-68
2022/04/20 07:12:43;;;;;;;;;58.75;43.25;;;;;13.18;62.30;100844.00;5099858;27;45340;-68
2022/04/20 07:15:08;;;;;;;;;59.75;46.25;;;;;13.19;63.47;100843.09;5100327;27;45427;-67
2022/04/20 07:17:34;;;;;;;;;56.25;44.75;;;;;13.24;62.54;100850.78;5099741;27;45436;-66
2022/04/20 07:20:01;;;;;;;;;59.25;46.00;;;;;13.29;62.42;100856.66;5095552;27;47043;-65
2022/04/20 07:22:26;;;;;;;;;58.00;45.00;;;;;13.40;62.84;100851.88;5085764;27;45774;-66
2022/04/20 07:24:52;;;;;;;;;56.25;44.25;;;;;13.54;62.94;100852.22;5098451;27;45293;-65
2022/04/20 07:27:18;;;;;;;;;62.50;44.25;;;;;13.59;62.16;100852.06;5095519;27;45315;-66
2022/04/20 07:29:43;;;;;;;;;44.50;39.25;;;;;13.62;61.84;100850.19;5091861;27;48068;-65
2022/04/20 07:32:09;;;;;;;;;56.00;43.00;;;;;13.78;61.82;100865.25;5100039;27;45223;-66
2022/04/20 07:34:34;;;;;;;;;52.25;38.00;;;;;13.99;62.07;100861.81;5100435;27;45359;-64
2022/04/20 07:36:59;;;;;;;;;48.75;37.00;;;;;14.13;60.28;100856.88;5098709;27;45220;-65
2022/04/20 07:39:25;;;;;;;;;54.00;44.25;;;;;14.23;60.01;100857.38;5100281;27;45338;-66
2022/04/20 07:41:50;;;;;;;;;47.00;40.00;;;;;14.32;59.79;100855.22;5099223;27;45238;-65
2022/04/20 07:44:15;;;;;;;;;57.00;42.50;;;;;14.41;59.13;100859.22;5099157;27;45450;-65
2022/04/20 07:46:41;;;;;;;;;52.50;39.75;;;;;14.49;59.88;100854.56;5099058;27;45327;-65
2022/04/20 07:50:18;;;;;;;;;49.50;37.25;;;;;14.54;58.76;100855.22;5099042;27;45405;-65
2022/04/20 07:51:53;;;;;;;;;47.75;35.50;;;;;14.60;58.40;100854.09;5098611;27;45469;-64
2022/04/20 07:54:18;;;;;;;;;45.00;34.75;;;;;14.72;57.41;100858.81;5102210;27;45270;-65
2022/04/20 07:56:43;;;;;;;;;41.25;34.75;;;;;14.95;57.38;100862.22;5101166;27;46091;-65
2022/04/20 07:59:09;;;;;;;;;51.00;38.75;;;;;15.17;57.03;100868.19;5102045;27;45304;-65
2022/04/20 08:01:34;;;;;;;;;42.25;35.25;;;;;15.23;56.42;100865.34;5098688;27;45325;-64
2022/04/20 08:03:59;;;;;;;;;41.50;35.25;;;;;15.22;54.35;100863.63;5102663;27;45279;-64
2022/04/20 08:06:27;;;;;;;;;36.75;33.25;;;;;15.24;54.61;100867.03;5102097;27;45351;-65
2022/04/20 08:08:52;;;;;;;;;45.25;34.75;;;;;15.28;54.51;100863.34;5102018;27;45497;-64
2022/04/20 08:11:17;;;;;;;;;43.75;35.00;;;;;15.40;52.70;100865.41;5102404;27;45254;-64
2022/04/20 08:16:29;;;;;;;;;44.00;35.00;;;;;15.52;55.35;100869.25;5100630;27;45310;-67
2022/04/20 08:18:54;;;;;;;;;39.75;31.25;;;;;15.58;54.60;100863.72;5100829;27;47524;-66
2022/04/20 08:21:20;;;;;;;;;43.50;32.25;;;;;15.60;53.91;100855.81;5098116;27;45286;-65
2022/04/20 08:23:45;;;;;;;;;47.00;36.00;;;;;15.68;54.03;100861.56;5102260;27;45457;-67
2022/04/20 08:26:10;;;;;;;;;40.00;32.50;;;;;15.73;53.97;100854.31;5101495;27;45597;-67
2022/04/20 08:28:36;;;;;;;;;36.25;32.50;;;;;15.91;53.41;100850.00;5099893;27;48313;-67
2022/04/20 08:31:01;;;;;;;;;38.75;32.00;;;;;16.15;52.55;100855.81;5099059;27;45448;-67
2022/04/20 08:33:26;;;;;;;;;33.00;25.75;;;;;16.37;52.09;100864.31;5097729;27;45329;-66
2022/04/20 08:35:52;;;;;;;;;38.25;34.00;;;;;16.52;52.44;100857.47;5100101;27;45362;-66
2022/04/20 08:38:17;;;;;;;;;35.25;30.50;;;;;16.57;51.20;100858.94;5096900;27;46495;-67
2022/04/20 08:40:44;;;;;;;;;35.50;30.25;;;;;16.57;50.70;100858.94;5098355;27;45507;-67
2022/04/20 08:43:11;;;;;;;;;33.00;30.75;;;;;16.62;50.65;100853.47;5100699;27;45452;-66
2022/04/20 08:45:38;;;;;;;;;30.50;28.00;;;;;16.67;50.58;100860.22;5099174;27;45478;-66
2022/04/20 08:48:05;;;;;;;;;26.75;26.00;;;;;16.80;50.08;100859.56;5099291;27;46697;-67
2022/04/20 08:50:31;;;;;;;;;36.25;29.75;;;;;16.93;50.26;100855.41;5100653;27;45331;-67
2022/04/20 08:52:58;;;;;;;;;25.00;21.00;;;;;16.91;48.38;100862.50;5101137;27;45550;-64
2022/04/20 08:55:23;;;;;;;;;27.25;23.75;;;;;16.88;48.64;100862.66;5099669;27;45390;-64
2022/04/20 08:57:52;;;;;;;;;26.75;24.00;;;;;16.81;45.61;100859.50;5100739;27;46096;-68
2022/04/20 09:00:23;;;;;;;;;30.75;24.50;;;;;16.85;48.53;100857.59;5101165;27;45249;-66
2022/04/20 09:02:56;;;;;;;;;24.75;20.00;;;;;16.87;47.50;100863.59;5101091;27;45445;-67
2022/04/20 09:05:23;;;;;;;;;24.50;24.00;;;;;16.94;48.11;100865.81;5097505;27;45369;-67
2022/04/20 09:07:49;;;;;;;;;25.75;21.75;;;;;16.99;47.31;100862.94;5099519;27;46725;-66
2022/04/20 09:10:16;;;;;;;;;19.25;19.00;;;;;17.03;46.31;100864.50;5100826;27;45356;-64
2022/04/20 09:12:43;;;;;;;;;21.25;15.75;;;;;17.08;45.84;100872.13;5099673;27;46005;-65
2022/04/20 09:15:10;;;;;;;;;24.25;19.25;;;;;17.16;45.82;100865.53;5100662;27;45328;-66
2022/04/20 09:17:44;;;;;;;;;21.50;19.00;;;;;17.33;44.66;100868.13;5100366;27;45518;-66
2022/04/20 09:20:17;;;;;;;;;19.00;19.00;;;;;17.54;45.76;100865.28;5097703;27;45521;-66
2022/04/20 09:22:59;;;;;;;;;30.00;21.25;;;;;17.83;46.21;100868.97;5098192;27;45338;-67
2022/04/20 09:25:30;;;;;;;;;23.75;19.75;;;;;17.98;46.19;100867.25;5100356;27;45329;-66
2022/04/20 09:27:55;;;;;;;;;26.25;23.25;;;;;18.06;45.67;100859.78;5100201;27;46672;-66
2022/04/20 09:30:20;;;;;;;;;27.75;24.25;;;;;18.17;45.98;100860.00;5099993;27;45344;-66
2022/04/20 09:32:47;;;;;;;;;24.00;17.50;;;;;18.21;46.60;100869.41;5100248;27;45324;-66
2022/04/20 09:35:15;;;;;;;;;24.75;23.50;;;;;18.20;45.51;100857.22;5099603;27;45574;-66
2022/04/20 09:37:43;;;;;;;;;25.25;19.00;;;;;18.29;45.06;100861.97;5098570;27;48052;-67
2022/04/20 09:40:11;;;;;;;;;23.25;22.25;;;;;18.43;45.86;100855.91;5098404;27;45305;-66
2022/04/20 09:42:39;;;;;;;;;23.00;19.00;;;;;18.45;44.65;100841.72;5099516;27;45499;-67
2022/04/20 09:45:06;;;;;;;;;24.00;17.75;;;;;18.50;44.29;100838.81;5097737;27;45515;-66
2022/04/20 09:50:22;;;;;;;;;17.50;14.00;;;;;18.43;44.43;100840.13;5100283;27;45447;-67
2022/04/20 09:52:49;;;;;;;;;26.00;21.75;;;;;18.48;44.32;100838.91;5098834;27;45599;-67
2022/04/20 09:55:18;;;;;;;;;22.50;18.50;;;;;18.57;44.05;100844.56;5100105;27;45490;-66
2022/04/20 09:57:44;;;;;;;;;23.75;21.50;;;;;18.47;44.10;100834.56;5099782;27;46212;-67
2022/04/20 10:00:15;;;;;;;;;22.75;19.00;;;;;18.41;43.53;100840.19;5099764;27;45242;-66
2022/04/20 10:02:50;;;;;;;;;25.50;22.00;;;;;18.36;43.67;100831.72;5099799;27;45301;-66
2022/04/20 10:05:17;;;;;;;;;15.25;14.00;;;;;18.42;43.74;100826.13;5097483;27;45420;-66
2022/04/20 10:07:48;;;;;;;;;16.25;15.00;;;;;18.46;43.72;100827.63;5099639;27;45349;-64
2022/04/20 10:10:14;;;;;;;;;22.00;18.00;;;;;18.46;43.67;100829.41;5096897;27;45868;-65
2022/04/20 10:12:42;;;;;;;;;16.00;15.75;;;;;18.48;43.11;100830.16;5098829;27;45269;-65
2022/04/20 10:17:56;;;;;;;;;14.75;14.00;;;;;18.48;43.79;100825.75;5098651;27;45816;-65
2022/04/20 10:20:28;;;;;;;;;13.75;11.25;;;;;18.46;42.57;100827.63;5099030;27;45465;-66
2022/04/20 10:22:54;;;;;;;;;19.00;17.50;;;;;18.50;43.69;100828.28;5097416;27;45294;-65
2022/04/20 10:25:20;;;;;;;;;14.75;13.75;;;;;18.57;42.38;100828.75;5100735;27;45300;-65
2022/04/20 10:27:58;;;;;;;;;14.00;12.75;;;;;18.67;42.61;100824.69;5100458;27;46391;-65
2022/04/20 10:30:50;;;;;;;;;15.25;14.00;;;;;18.81;42.08;100822.06;5098742;27;45481;-66
2022/04/20 10:33:19;;;;;;;;;14.25;12.75;;;;;18.88;42.10;100818.13;5098141;27;45465;-67
2022/04/20 10:36:06;;;;;;;;;15.25;14.25;;;;;18.96;42.06;100815.88;5097084;27;45356;-66
2022/04/20 10:38:32;;;;;;;;;14.00;13.25;;;;;19.12;42.56;100823.69;5096776;27;46490;-66
2022/04/20 10:41:09;;;;;;;;;18.00;13.50;;;;;19.22;42.44;100813.41;5098230;27;45802;-66
2022/04/20 10:43:42;;;;;;;;;17.25;14.25;;;;;19.17;40.70;100805.78;5097480;27;45409;-65
2022/04/20 10:46:18;;;;;;;;;16.50;13.00;;;;;19.22;42.31;100816.03;5096090;27;45659;-64
2022/04/20 10:48:56;;;;;;;;;15.75;12.25;;;;;19.29;42.17;100814.72;5098306;27;45542;-67
2022/04/20 10:51:24;;;;;;;;;10.50;10.50;;;;;19.32;42.45;100804.84;5092630;27;45370;-64
2022/04/20 10:53:51;;;;;;;;;11.50;10.75;;;;;19.31;41.36;100795.25;5096278;27;45357;-64
2022/04/20 10:56:18;;;;;;;;;13.50;10.50;;;;;19.29;40.77;100801.56;5098070;27;45407;-64
2022/04/20 10:59:05;;;;;;;;;11.50;10.75;;;;;19.34;41.45;100789.78;5094816;27;46400;-64
2022/04/20 11:01:30;;;;;;;;;13.50;11.50;;;;;19.44;41.21;100796.16;5095934;27;45424;-64
2022/04/20 11:03:59;;;;;;;;;12.00;11.75;;;;;19.52;41.29;100779.00;5097787;27;45487;-64
2022/04/20 11:06:58;;;;;;;;;12.50;12.00;;;;;19.54;40.69;100778.00;5098792;27;45422;-63
2022/04/20 11:09:42;;;;;;;;;12.25;11.00;;;;;19.60;40.53;100779.38;5097645;27;45547;-63
2022/04/20 11:21:12;;;;;;;;;9.25;8.75;;;;;19.66;39.39;100764.03;5112600;27;45761;-64
2022/04/20 11:23:54;;;;;;;;;11.75;9.25;;;;;19.71;37.31;100761.94;5095907;27;45266;-65
2022/04/20 11:26:37;;;;;;;;;6.50;6.00;;;;;19.78;39.00;100753.63;5099217;27;45337;-67
2022/04/20 11:29:09;;;;;;;;;9.25;5.50;;;;;19.77;36.47;100763.31;5086044;27;45344;-65
2022/04/20 11:31:57;;;;;;;;;11.00;10.75;;;;;19.86;38.23;100770.66;5099580;27;45294;-70
2022/04/20 11:34:24;;;;;;;;;9.50;8.25;;;;;19.91;38.26;100751.88;5089061;27;45749;-71
2022/04/20 11:36:53;;;;;;;;;7.00;7.00;;;;;19.92;37.48;100748.28;5099387;27;45638;-67
2022/04/20 11:39:22;;;;;;;;;8.25;5.50;;;;;19.97;37.25;100772.56;5099857;27;45258;-69
2022/04/20 11:41:53;;;;;;;;;3.75;3.75;;;;;19.98;37.37;100759.28;5099891;27;45473;-67
2022/04/20 11:44:24;;;;;;;;;9.00;7.00;;;;;19.99;37.73;100746.91;5099964;27;45631;-71
2022/04/20 11:46:51;;;;;;;;;7.50;6.25;;;;;20.09;34.84;100757.72;5094083;27;45503;-68
2022/04/20 11:49:17;;;;;;;;;5.50;3.75;;;;;20.20;35.91;100757.84;5096171;27;45241;-73